Time;durP1;ratioP1;P1;durP2;ratioP2;P2;SDS_P1;SDS_P2;PMS_P1;PMS_P2;Temp;Humidity;BMP_temperature;BMP_pressure;BME280_temperature;BME280_humidity;BME280_pressure;Samples;Min_cycle;Max_cycle;Signal;HPM_P1;HPM_P2
2022/07/22 00:00:09;;;;;;;8.23;1.80;;;19.10;99.90;;;;;;4960347;28;20186;-70
2022/07/22 00:02:36;;;;;;;10.33;1.90;;;18.50;99.90;;;;;;4963813;28;20254;-69
2022/07/22 00:05:04;;;;;;;8.20;1.90;;;17.80;99.90;;;;;;4975155;28;20175;-69
2022/07/22 00:07:31;;;;;;;7.77;2.00;;;17.20;99.90;;;;;;4973829;28;20183;-69
2022/07/22 00:09:59;;;;;;;6.83;2.40;;;16.60;99.90;;;;;;4968615;28;20965;-69
2022/07/22 00:12:26;;;;;;;7.73;2.03;;;16.20;99.90;;;;;;4955606;29;20594;-69
2022/07/22 00:14:53;;;;;;;6.07;2.33;;;16.00;99.90;;;;;;4955597;29;20187;-69
2022/07/22 00:17:21;;;;;;;9.20;1.80;;;15.80;99.90;;;;;;4955584;29;20261;-68
2022/07/22 00:19:48;;;;;;;6.20;1.90;;;15.70;99.90;;;;;;4959685;28;20663;-68
2022/07/22 00:22:16;;;;;;;7.33;2.00;;;15.80;99.90;;;;;;4964754;28;20666;-67
2022/07/22 00:24:43;;;;;;;8.37;1.83;;;15.90;99.90;;;;;;4964559;28;20211;-68
2022/07/22 00:27:10;;;;;;;6.87;2.03;;;16.00;99.90;;;;;;4964926;28;20700;-68
2022/07/22 00:29:38;;;;;;;5.80;1.90;;;16.00;99.90;;;;;;4965637;28;20172;-68
2022/07/22 00:32:05;;;;;;;6.33;1.73;;;16.00;99.90;;;;;;4964386;28;20179;-68
2022/07/22 00:34:33;;;;;;;14.63;2.43;;;16.10;99.90;;;;;;4963476;28;20175;-70
2022/07/22 00:37:00;;;;;;;6.37;1.53;;;16.00;99.90;;;;;;4956236;29;20207;-69
2022/07/22 00:39:27;;;;;;;8.20;1.80;;;16.00;99.90;;;;;;4964730;28;20222;-68
2022/07/22 00:41:55;;;;;;;6.50;1.83;;;15.90;99.90;;;;;;4974450;28;20217;-68
2022/07/22 00:44:25;;;;;;;7.10;2.03;;;16.00;99.90;;;;;;4972259;28;20179;-68
2022/07/22 00:46:52;;;;;;;3.70;1.20;;;16.10;99.90;;;;;;4971188;28;20210;-68
2022/07/22 00:49:23;;;;;;;5.50;1.57;;;17.10;99.90;;;;;;4958843;28;20670;-67
2022/07/22 00:51:50;;;;;;;3.33;1.40;;;17.90;99.90;;;;;;4954307;28;20187;-68
2022/07/22 00:54:18;;;;;;;6.93;1.67;;;18.20;99.90;;;;;;4954254;29;20263;-68
2022/07/22 00:56:45;;;;;;;6.13;1.37;;;18.50;99.90;;;;;;4954520;28;20228;-67
2022/07/22 00:59:14;;;;;;;8.73;1.50;;;19.00;99.90;;;;;;4966779;28;20233;-69
2022/07/22 01:01:41;;;;;;;6.13;1.27;;;20.10;99.90;;;;;;4973792;28;20217;-68
2022/07/22 01:04:08;;;;;;;4.03;1.10;;;21.20;99.90;;;;;;4968448;28;20199;-68
2022/07/22 01:06:36;;;;;;;4.90;1.17;;;21.40;99.90;;;;;;4954388;29;20215;-67
2022/07/22 01:09:05;;;;;;;6.17;1.10;;;21.10;99.90;;;;;;4964802;28;20182;-68
2022/07/22 01:11:38;;;;;;;6.33;1.37;;;21.80;99.90;;;;;;4954489;28;20238;-69
2022/07/22 01:14:06;;;;;;;8.50;1.47;;;22.40;99.90;;;;;;4954022;28;20302;-70
2022/07/22 01:16:33;;;;;;;3.40;1.00;;;22.50;99.90;;;;;;4954140;29;20306;-69
2022/07/22 01:19:04;;;;;;;7.03;1.00;;;22.20;99.90;;;;;;4953922;28;20567;-69
2022/07/22 01:21:32;;;;;;;11.60;1.50;;;22.60;99.90;;;;;;4958948;28;20183;-68
2022/07/22 01:24:00;;;;;;;4.07;1.40;;;22.90;99.90;;;;;;4973014;28;20254;-69
2022/07/22 01:26:28;;;;;;;3.53;1.20;;;22.40;99.90;;;;;;4973243;28;20175;-69
2022/07/22 01:28:55;;;;;;;3.57;0.90;;;22.20;99.90;;;;;;4973322;28;20589;-69
2022/07/22 01:31:23;;;;;;;5.40;1.10;;;21.90;99.90;;;;;;4966006;28;20199;-68
2022/07/22 01:33:50;;;;;;;6.50;1.10;;;21.60;99.90;;;;;;4953960;29;20180;-68
2022/07/22 01:36:18;;;;;;;5.90;1.60;;;21.40;99.90;;;;;;4953852;29;20256;-69
2022/07/22 01:38:46;;;;;;;12.17;1.67;;;20.50;99.90;;;;;;4953717;29;20176;-69
2022/07/22 01:41:14;;;;;;;6.30;1.40;;;19.60;99.90;;;;;;4958764;28;20198;-69
2022/07/22 01:43:42;;;;;;;6.03;1.33;;;18.90;99.90;;;;;;4972541;28;20646;-68
2022/07/22 01:46:12;;;;;;;9.30;1.93;;;18.40;99.90;;;;;;4972951;28;20204;-69
2022/07/22 01:48:41;;;;;;;9.27;1.70;;;17.90;99.90;;;;;;4973059;28;20192;-69
2022/07/22 01:51:08;;;;;;;4.67;1.23;;;17.70;99.90;;;;;;4954926;28;20203;-68
2022/07/22 01:53:36;;;;;;;12.50;1.80;;;17.60;99.90;;;;;;4965606;28;20669;-69
2022/07/22 01:56:03;;;;;;;5.03;1.50;;;17.50;99.90;;;;;;4953436;28;20219;-68
2022/07/22 01:58:31;;;;;;;7.80;1.50;;;17.60;99.90;;;;;;4960907;28;20758;-69
2022/07/22 02:00:58;;;;;;;10.37;2.13;;;17.90;99.90;;;;;;4972706;28;20689;-69
2022/07/22 02:03:26;;;;;;;6.87;2.27;;;17.90;99.90;;;;;;4955829;28;20252;-69
2022/07/22 02:05:53;;;;;;;14.97;2.40;;;17.90;99.90;;;;;;4957667;29;20682;-69
2022/07/22 02:08:20;;;;;;;6.73;1.57;;;18.40;99.90;;;;;;4957462;28;20194;-69
2022/07/22 02:10:48;;;;;;;9.80;1.60;;;19.00;99.90;;;;;;4958193;28;20187;-69
2022/07/22 02:13:15;;;;;;;8.13;1.90;;;18.80;99.90;;;;;;4957060;29;20226;-69
2022/07/22 02:15:43;;;;;;;10.00;1.97;;;18.20;99.90;;;;;;4957279;28;20685;-69
2022/07/22 02:18:13;;;;;;;8.73;1.57;;;17.90;99.90;;;;;;4957368;28;20659;-69
2022/07/22 02:20:40;;;;;;;8.63;1.10;;;17.60;99.90;;;;;;4957455;28;20199;-69
2022/07/22 02:23:08;;;;;;;7.80;1.73;;;17.60;99.90;;;;;;4976217;28;20549;-69
2022/07/22 02:25:35;;;;;;;6.70;1.43;;;17.50;99.90;;;;;;4976366;28;20235;-68
2022/07/22 02:28:03;;;;;;;7.20;1.20;;;17.50;99.90;;;;;;4957251;29;20187;-69
2022/07/22 02:30:30;;;;;;;9.13;1.50;;;17.50;99.90;;;;;;4957111;29;20219;-69
2022/07/22 02:32:58;;;;;;;9.13;1.57;;;17.50;99.90;;;;;;4973914;28;20260;-69
2022/07/22 02:35:26;;;;;;;8.83;1.43;;;17.50;99.90;;;;;;4975055;28;20207;-70
2022/07/22 02:37:53;;;;;;;6.50;1.30;;;17.60;99.90;;;;;;4976377;28;20232;-70
2022/07/22 02:40:22;;;;;;;7.30;1.63;;;17.60;99.90;;;;;;4956875;29;20760;-69
2022/07/22 02:42:50;;;;;;;8.97;1.70;;;17.80;99.90;;;;;;4972355;28;20185;-69
2022/07/22 02:45:17;;;;;;;8.63;1.57;;;17.80;99.90;;;;;;4975141;28;20646;-68
2022/07/22 02:47:49;;;;;;;4.63;1.10;;;18.10;99.90;;;;;;4975973;28;20238;-69
2022/07/22 02:50:17;;;;;;;7.67;1.57;;;18.40;99.90;;;;;;4972581;28;20195;-68
2022/07/22 02:52:45;;;;;;;4.77;1.20;;;18.70;99.90;;;;;;4976030;28;20274;-69
2022/07/22 02:55:13;;;;;;;6.53;1.20;;;18.70;99.90;;;;;;4962746;28;20199;-69
2022/07/22 02:57:42;;;;;;;8.37;1.53;;;18.40;99.90;;;;;;4963086;28;20210;-69
2022/07/22 03:00:11;;;;;;;8.77;3.50;;;18.10;99.90;;;;;;4975542;28;20190;-69
2022/07/22 03:02:40;;;;;;;6.43;2.20;;;17.90;99.90;;;;;;4957925;28;20243;-69
2022/07/22 03:05:08;;;;;;;3.03;1.20;;;17.70;99.90;;;;;;4956440;28;20177;-68
2022/07/22 03:07:36;;;;;;;6.13;1.40;;;17.60;99.90;;;;;;4956428;28;20192;-68
2022/07/22 03:10:05;;;;;;;9.20;2.00;;;17.60;99.90;;;;;;4956230;28;20184;-67
2022/07/22 03:12:32;;;;;;;4.90;1.80;;;17.50;99.90;;;;;;4972585;28;20195;-69
2022/07/22 03:15:00;;;;;;;5.53;1.43;;;17.50;99.90;;;;;;4973112;28;20271;-68
2022/07/22 03:17:28;;;;;;;6.80;1.40;;;17.50;99.90;;;;;;4954483;28;20215;-68
2022/07/22 03:19:55;;;;;;;7.73;1.40;;;17.70;99.90;;;;;;4956225;29;20192;-68
2022/07/22 03:22:23;;;;;;;6.27;1.60;;;18.70;99.90;;;;;;4971024;28;20194;-69
2022/07/22 03:24:51;;;;;;;6.83;1.60;;;19.30;99.90;;;;;;4975534;28;20179;-69
2022/07/22 03:27:18;;;;;;;5.17;1.40;;;19.20;99.90;;;;;;4975153;28;20651;-69
2022/07/22 03:29:46;;;;;;;6.70;1.30;;;19.10;99.90;;;;;;4975235;28;20182;-69
2022/07/22 03:32:14;;;;;;;3.97;1.07;;;18.70;99.90;;;;;;4975236;28;20179;-69
2022/07/22 03:34:41;;;;;;;5.57;1.77;;;18.50;99.90;;;;;;4959024;28;20219;-68
2022/07/22 03:37:09;;;;;;;5.20;1.50;;;19.00;99.90;;;;;;4972616;28;20302;-69
2022/07/22 03:39:37;;;;;;;6.40;1.13;;;19.20;99.90;;;;;;4970145;28;20831;-68
2022/07/22 03:42:05;;;;;;;6.10;1.60;;;19.30;99.90;;;;;;4961176;28;20195;-70
2022/07/22 03:44:33;;;;;;;6.67;1.60;;;18.90;99.90;;;;;;4974976;28;20654;-68
2022/07/22 03:47:00;;;;;;;6.47;1.43;;;18.50;99.90;;;;;;4973387;28;20194;-68
2022/07/22 03:49:29;;;;;;;13.93;1.77;;;18.00;99.90;;;;;;4962527;28;20222;-68
2022/07/22 03:51:57;;;;;;;7.73;1.90;;;17.80;99.90;;;;;;4970663;28;20207;-68
2022/07/22 03:54:25;;;;;;;6.30;1.50;;;17.80;99.90;;;;;;4955574;28;20203;-69
2022/07/22 03:56:52;;;;;;;5.97;1.30;;;17.60;99.90;;;;;;4955658;28;20218;-70
2022/07/22 03:59:20;;;;;;;4.20;1.00;;;17.50;99.90;;;;;;4955396;29;20232;-68
2022/07/22 04:01:48;;;;;;;5.37;1.50;;;17.40;99.90;;;;;;4961120;28;20201;-70
2022/07/22 04:04:16;;;;;;;5.37;1.07;;;17.50;99.90;;;;;;4973670;28;20183;-69
2022/07/22 04:06:45;;;;;;;4.70;1.03;;;17.70;99.90;;;;;;4974737;28;20194;-69
2022/07/22 04:09:12;;;;;;;2.67;0.93;;;18.00;99.90;;;;;;4974468;28;20191;-69
2022/07/22 04:11:40;;;;;;;5.60;1.73;;;17.60;99.90;;;;;;4969800;28;20203;-69
2022/07/22 04:14:08;;;;;;;5.97;1.43;;;17.30;99.90;;;;;;4963685;28;20179;-69
2022/07/22 04:16:35;;;;;;;3.67;1.20;;;17.10;99.90;;;;;;4974427;28;20225;-69
2022/07/22 04:19:04;;;;;;;6.10;1.40;;;16.90;99.90;;;;;;4973048;28;20179;-69
2022/07/22 04:21:32;;;;;;;4.60;1.37;;;16.60;99.90;;;;;;4971158;28;20180;-70
2022/07/22 04:24:00;;;;;;;5.53;1.50;;;16.30;99.90;;;;;;4955169;28;20555;-70
2022/07/22 04:26:27;;;;;;;4.23;1.13;;;16.40;99.90;;;;;;4955034;28;20180;-70
2022/07/22 04:28:55;;;;;;;5.33;1.10;;;16.40;99.90;;;;;;4954874;28;20191;-70
2022/07/22 04:31:23;;;;;;;3.90;1.50;;;16.20;99.90;;;;;;4956149;28;20538;-69
2022/07/22 04:33:51;;;;;;;6.37;1.37;;;16.10;99.90;;;;;;4974172;28;20246;-69
2022/07/22 04:36:18;;;;;;;4.20;1.10;;;16.30;99.90;;;;;;4973439;28;20233;-69
2022/07/22 04:38:46;;;;;;;7.47;1.57;;;16.30;99.90;;;;;;4965699;28;20192;-69
2022/07/22 04:41:14;;;;;;;5.47;1.40;;;16.30;99.90;;;;;;4954988;28;20197;-68
2022/07/22 04:43:41;;;;;;;6.30;1.20;;;16.30;99.90;;;;;;4973286;28;20242;-68
2022/07/22 04:46:09;;;;;;;3.87;1.20;;;16.20;99.90;;;;;;4974008;28;20184;-70
2022/07/22 04:48:37;;;;;;;4.80;1.37;;;16.10;99.90;;;;;;4972292;28;20183;-68
2022/07/22 04:51:05;;;;;;;9.03;1.47;;;15.90;99.90;;;;;;4955405;28;20184;-68
2022/07/22 04:53:32;;;;;;;8.13;1.80;;;15.90;99.90;;;;;;4954520;28;20188;-68
2022/07/22 04:56:00;;;;;;;6.07;1.30;;;15.70;99.90;;;;;;4955858;28;20250;-68
2022/07/22 04:58:28;;;;;;;4.73;1.60;;;15.70;99.90;;;;;;4968884;28;20188;-68
2022/07/22 05:00:56;;;;;;;4.63;1.40;;;15.70;99.90;;;;;;4962427;28;20204;-69
2022/07/22 05:03:25;;;;;;;6.30;1.23;;;15.70;99.90;;;;;;4961154;28;20267;-68
2022/07/22 05:05:52;;;;;;;6.97;1.30;;;15.80;99.90;;;;;;4973729;28;20238;-68
2022/07/22 05:08:20;;;;;;;9.67;2.10;;;15.80;99.90;;;;;;4959170;28;20722;-68
2022/07/22 05:10:48;;;;;;;5.63;1.97;;;15.70;99.90;;;;;;4954115;29;20568;-68
2022/07/22 05:13:15;;;;;;;5.77;1.60;;;15.60;99.90;;;;;;4954048;29;20176;-69
2022/07/22 05:15:43;;;;;;;6.17;1.63;;;15.40;99.90;;;;;;4954327;29;20261;-68
2022/07/22 05:18:11;;;;;;;9.63;2.27;;;15.40;99.90;;;;;;4954056;29;20262;-68
2022/07/22 05:20:40;;;;;;;8.63;2.03;;;15.20;99.90;;;;;;4969105;28;20186;-68
2022/07/22 05:23:07;;;;;;;5.90;1.50;;;15.00;99.90;;;;;;4973200;28;20787;-67
2022/07/22 05:25:35;;;;;;;9.83;2.20;;;14.80;99.90;;;;;;4973171;28;20266;-68
2022/07/22 05:28:03;;;;;;;9.73;1.83;;;14.50;99.90;;;;;;4973123;28;20187;-68
2022/07/22 05:30:31;;;;;;;7.50;2.07;;;14.40;99.90;;;;;;4972933;28;20181;-69
2022/07/22 05:32:58;;;;;;;5.83;1.70;;;14.30;99.90;;;;;;4973188;28;20176;-69
2022/07/22 05:35:27;;;;;;;8.80;2.20;;;14.20;99.90;;;;;;4973004;28;20230;-68
2022/07/22 05:37:54;;;;;;;9.47;2.43;;;14.20;99.90;;;;;;4972822;28;20740;-70
2022/07/22 05:40:22;;;;;;;10.37;2.67;;;14.20;99.90;;;;;;4972501;28;20230;-69
2022/07/22 05:42:50;;;;;;;10.57;2.37;;;14.30;99.90;;;;;;4972856;28;20665;-69
2022/07/22 05:45:18;;;;;;;8.63;1.93;;;14.20;99.90;;;;;;4972771;28;20244;-69
2022/07/22 05:47:45;;;;;;;9.67;1.80;;;14.30;99.90;;;;;;4972843;28;20182;-68
2022/07/22 05:50:13;;;;;;;13.13;2.60;;;14.30;99.90;;;;;;4966753;28;20187;-69
2022/07/22 05:52:42;;;;;;;10.87;2.30;;;14.30;99.90;;;;;;4952318;28;20186;-69
2022/07/22 05:55:10;;;;;;;8.00;2.30;;;14.40;99.90;;;;;;4953468;28;20203;-69
2022/07/22 05:57:37;;;;;;;14.90;2.30;;;14.30;99.90;;;;;;4953432;28;20222;-69
2022/07/22 06:00:06;;;;;;;10.10;2.10;;;14.30;99.90;;;;;;4953588;29;20200;-69
2022/07/22 06:02:36;;;;;;;7.80;2.27;;;14.40;99.90;;;;;;4953308;28;20199;-69
2022/07/22 06:05:04;;;;;;;10.17;2.37;;;14.50;99.90;;;;;;4955802;28;20188;-68
2022/07/22 06:07:32;;;;;;;6.30;1.80;;;14.50;99.90;;;;;;4953454;28;20186;-69
2022/07/22 06:10:00;;;;;;;11.60;2.30;;;14.50;99.90;;;;;;4954415;28;20203;-69
2022/07/22 06:12:27;;;;;;;9.20;1.90;;;14.60;99.90;;;;;;4972478;28;20194;-68
2022/07/22 06:14:55;;;;;;;8.47;2.10;;;14.60;99.90;;;;;;4966091;28;20237;-69
2022/07/22 06:17:23;;;;;;;10.43;2.37;;;14.60;99.90;;;;;;4953188;29;20503;-69
2022/07/22 06:19:51;;;;;;;11.67;2.63;;;14.60;99.90;;;;;;4953349;28;20172;-69
2022/07/22 06:22:18;;;;;;;15.20;3.00;;;14.60;99.90;;;;;;4959639;28;20178;-69
2022/07/22 06:24:46;;;;;;;15.63;3.33;;;14.60;99.90;;;;;;4963841;28;20196;-69
2022/07/22 06:27:14;;;;;;;16.87;3.00;;;14.60;99.90;;;;;;4972343;28;20185;-69
2022/07/22 06:29:42;;;;;;;12.43;3.30;;;14.50;99.90;;;;;;4969362;28;20543;-69
2022/07/22 06:32:10;;;;;;;11.17;2.73;;;14.60;99.90;;;;;;4953195;29;20262;-69
2022/07/22 06:34:37;;;;;;;11.47;2.43;;;14.50;99.90;;;;;;4961704;28;20612;-70
2022/07/22 06:37:06;;;;;;;11.83;2.00;;;14.50;99.90;;;;;;4972223;28;20734;-69
2022/07/22 06:39:33;;;;;;;9.07;2.23;;;14.40;99.90;;;;;;4972185;28;20704;-68
2022/07/22 06:42:01;;;;;;;9.07;3.10;;;14.40;99.90;;;;;;4972245;28;20195;-69
2022/07/22 06:44:29;;;;;;;10.07;2.73;;;14.30;99.90;;;;;;4964643;28;20177;-69
2022/07/22 06:46:56;;;;;;;9.87;3.23;;;14.10;99.90;;;;;;4953252;29;20672;-69
2022/07/22 06:49:24;;;;;;;7.03;3.23;;;14.10;99.90;;;;;;4952789;28;20710;-69
2022/07/22 06:51:52;;;;;;;10.03;2.33;;;14.00;99.90;;;;;;4955389;28;20661;-69
2022/07/22 06:54:20;;;;;;;9.77;2.50;;;14.00;99.90;;;;;;4962614;28;20172;-69
2022/07/22 06:56:47;;;;;;;6.57;2.03;;;13.90;99.90;;;;;;4975907;28;20217;-69
2022/07/22 06:59:15;;;;;;;7.27;2.23;;;13.80;99.90;;;;;;4975716;28;20198;-70
2022/07/22 07:01:43;;;;;;;8.80;2.00;;;13.80;99.90;;;;;;4973429;28;20269;-69
2022/07/22 07:04:10;;;;;;;10.53;4.23;;;13.80;99.90;;;;;;4964184;28;20205;-69
2022/07/22 07:06:38;;;;;;;8.50;3.17;;;13.80;99.90;;;;;;4970334;28;20194;-69
2022/07/22 07:09:07;;;;;;;11.20;2.37;;;13.90;99.90;;;;;;4975827;28;20187;-69
2022/07/22 07:11:35;;;;;;;13.87;2.50;;;13.90;99.90;;;;;;4974749;28;20272;-70
2022/07/22 07:14:02;;;;;;;9.03;2.33;;;14.00;99.90;;;;;;4975115;28;20183;-69
2022/07/22 07:16:31;;;;;;;6.80;2.40;;;14.00;99.90;;;;;;4975658;28;20222;-69
2022/07/22 07:18:59;;;;;;;12.07;2.80;;;13.90;99.90;;;;;;4975816;28;20178;-69
2022/07/22 07:21:27;;;;;;;9.93;2.13;;;13.90;99.90;;;;;;4965923;28;20202;-70
2022/07/22 07:23:55;;;;;;;7.40;2.23;;;13.90;99.90;;;;;;4956559;28;20646;-69
2022/07/22 07:26:23;;;;;;;12.60;2.90;;;13.90;99.90;;;;;;4956602;28;20650;-69
2022/07/22 07:28:54;;;;;;;9.80;2.17;;;13.90;99.90;;;;;;4956456;28;20624;-69
2022/07/22 07:31:22;;;;;;;4.93;2.30;;;13.80;99.90;;;;;;4956602;28;20191;-69
2022/07/22 07:33:50;;;;;;;13.87;2.57;;;13.80;99.90;;;;;;4956146;28;20643;-69
2022/07/22 07:36:18;;;;;;;8.53;2.10;;;13.70;99.90;;;;;;4957489;29;20696;-69
2022/07/22 07:38:46;;;;;;;5.43;2.27;;;13.70;99.90;;;;;;4958596;28;20183;-70
2022/07/22 07:41:14;;;;;;;6.57;2.33;;;13.60;99.90;;;;;;4957720;28;20191;-70
2022/07/22 07:43:42;;;;;;;7.37;2.80;;;13.50;99.90;;;;;;4959349;28;20197;-70
2022/07/22 07:46:10;;;;;;;11.00;2.60;;;13.50;99.90;;;;;;4975248;28;20234;-70
2022/07/22 07:48:39;;;;;;;8.63;2.97;;;13.40;99.90;;;;;;4975384;28;20554;-70
2022/07/22 07:51:07;;;;;;;8.10;2.60;;;13.30;99.90;;;;;;4962773;28;20219;-69
2022/07/22 07:53:35;;;;;;;11.50;3.77;;;13.30;99.90;;;;;;4958269;28;20191;-69
2022/07/22 07:56:03;;;;;;;8.90;3.10;;;13.30;99.90;;;;;;4974706;28;20226;-69
2022/07/22 07:58:31;;;;;;;15.10;4.67;;;13.30;99.90;;;;;;4971717;28;20190;-69
2022/07/22 08:01:00;;;;;;;10.80;4.07;;;13.30;99.90;;;;;;4956704;28;20187;-69
2022/07/22 08:03:28;;;;;;;12.07;3.50;;;13.30;99.90;;;;;;4957852;28;20187;-69
2022/07/22 08:05:57;;;;;;;10.43;4.13;;;13.40;99.90;;;;;;4976229;28;20659;-69
2022/07/22 08:08:25;;;;;;;10.53;4.13;;;13.40;99.90;;;;;;4975765;28;20190;-69
2022/07/22 08:10:54;;;;;;;6.40;4.00;;;13.50;99.90;;;;;;4975803;28;20189;-69
2022/07/22 08:13:22;;;;;;;15.70;7.97;;;13.50;99.90;;;;;;4975227;28;20183;-68
2022/07/22 08:15:49;;;;;;;14.33;8.03;;;13.50;99.90;;;;;;4956686;29;20712;-69
2022/07/22 08:18:17;;;;;;;12.70;5.40;;;13.50;99.90;;;;;;4956946;28;20179;-68
2022/07/22 08:20:45;;;;;;;15.03;4.30;;;13.50;99.90;;;;;;4963140;28;20202;-68
2022/07/22 08:23:13;;;;;;;10.97;2.97;;;13.50;99.90;;;;;;4974256;28;20174;-68
2022/07/22 08:25:41;;;;;;;10.70;3.07;;;13.60;99.90;;;;;;4975829;28;20199;-68
2022/07/22 08:28:08;;;;;;;11.70;2.93;;;13.50;99.90;;;;;;4977021;28;20190;-68
2022/07/22 08:30:43;;;;;;;9.80;2.87;;;13.50;99.90;;;;;;4957961;29;20183;-69
2022/07/22 08:33:11;;;;;;;7.63;2.30;;;13.50;99.90;;;;;;4957752;28;20258;-69
2022/07/22 08:35:39;;;;;;;18.63;3.00;;;13.50;99.90;;;;;;4956569;28;20287;-69
2022/07/22 08:38:06;;;;;;;9.73;2.80;;;13.60;99.90;;;;;;4956382;28;20208;-69
2022/07/22 08:40:34;;;;;;;9.77;3.00;;;13.60;99.90;;;;;;4956483;28;20952;-69
2022/07/22 08:43:03;;;;;;;10.13;3.23;;;13.60;99.90;;;;;;4960170;28;20186;-69
2022/07/22 08:45:33;;;;;;;12.67;3.50;;;13.60;99.90;;;;;;4975651;28;20171;-69
2022/07/22 08:48:03;;;;;;;9.97;3.20;;;13.60;99.90;;;;;;4975343;28;20190;-69
2022/07/22 08:50:31;;;;;;;10.47;2.97;;;13.60;99.90;;;;;;4975518;28;20179;-69
2022/07/22 08:53:00;;;;;;;11.47;2.93;;;13.60;99.90;;;;;;4970647;28;20188;-69
2022/07/22 08:55:28;;;;;;;11.10;2.80;;;13.60;99.90;;;;;;4956077;28;20230;-68
2022/07/22 08:57:55;;;;;;;10.20;3.00;;;13.50;99.90;;;;;;4956916;28;20199;-70
2022/07/22 09:00:24;;;;;;;6.30;2.87;;;13.50;99.90;;;;;;4962696;28;20616;-70
2022/07/22 09:02:51;;;;;;;8.73;1.97;;;13.50;99.90;;;;;;4967288;28;20196;-69
2022/07/22 09:05:19;;;;;;;3.23;1.70;;;13.50;99.90;;;;;;4969449;28;20222;-69
2022/07/22 09:07:47;;;;;;;6.70;1.80;;;13.40;99.90;;;;;;4974769;28;20649;-69
2022/07/22 09:10:19;;;;;;;3.20;1.40;;;13.40;99.90;;;;;;4964833;28;20281;-68
2022/07/22 09:13:01;;;;;;;7.37;2.03;;;13.30;99.90;;;;;;4968453;28;20288;-69
2022/07/22 09:15:35;;;;;;;5.30;2.70;;;13.30;99.90;;;;;;4955708;28;20190;-69
2022/07/22 09:18:04;;;;;;;4.77;1.90;;;13.30;99.90;;;;;;4955689;28;20198;-69
2022/07/22 09:20:34;;;;;;;2.90;1.37;;;13.20;99.90;;;;;;4956703;28;20589;-69
2022/07/22 09:23:02;;;;;;;4.70;1.43;;;13.30;99.90;;;;;;4973880;28;20272;-69
2022/07/22 09:25:37;;;;;;;5.27;1.70;;;13.30;99.90;;;;;;4972234;28;20198;-70
2022/07/22 09:28:08;;;;;;;3.03;1.57;;;13.30;99.90;;;;;;4955452;28;20242;-70
2022/07/22 09:30:38;;;;;;;8.03;2.37;;;13.30;99.90;;;;;;4954230;28;20187;-70
2022/07/22 09:33:08;;;;;;;3.67;1.83;;;13.30;99.90;;;;;;4963135;28;20250;-70
2022/07/22 09:35:35;;;;;;;4.07;1.77;;;13.30;99.90;;;;;;4975157;28;20183;-69
2022/07/22 09:38:06;;;;;;;7.30;1.73;;;13.30;99.90;;;;;;4974512;28;20192;-67
2022/07/22 09:40:39;;;;;;;5.77;1.57;;;13.30;99.90;;;;;;4973225;28;20763;-68
2022/07/22 09:43:12;;;;;;;3.43;1.90;;;13.20;99.90;;;;;;4966346;28;20223;-69
2022/07/22 09:45:53;;;;;;;4.20;1.97;;;13.10;99.90;;;;;;4955743;28;20265;-69
2022/07/22 09:48:22;;;;;;;5.60;2.07;;;13.10;99.90;;;;;;4955313;29;20203;-69
2022/07/22 09:50:51;;;;;;;4.27;2.10;;;13.10;99.90;;;;;;4959271;28;20187;-69
2022/07/22 09:53:22;;;;;;;5.77;1.97;;;13.10;99.90;;;;;;4964536;28;20573;-69
2022/07/22 09:55:50;;;;;;;7.83;2.30;;;13.10;99.90;;;;;;4974594;28;20199;-69
2022/07/22 09:58:18;;;;;;;8.03;2.57;;;13.10;99.90;;;;;;4970347;28;20278;-69
2022/07/22 10:00:47;;;;;;;5.43;3.00;;;13.00;99.90;;;;;;4966449;28;20238;-69
2022/07/22 10:03:28;;;;;;;12.30;3.23;;;13.00;99.90;;;;;;4954908;29;20691;-70
2022/07/22 10:05:58;;;;;;;6.87;3.03;;;12.90;99.90;;;;;;4955150;28;20642;-69
2022/07/22 10:08:30;;;;;;;7.70;3.13;;;12.80;99.90;;;;;;4954764;28;20194;-69
2022/07/22 10:11:04;;;;;;;7.37;2.90;;;12.80;99.90;;;;;;4955167;28;20206;-70
2022/07/22 10:13:34;;;;;;;6.57;3.20;;;12.80;99.90;;;;;;4965791;28;20671;-70
2022/07/22 10:16:02;;;;;;;4.77;3.23;;;12.70;99.90;;;;;;4974138;28;20225;-69
2022/07/22 10:18:30;;;;;;;8.90;3.50;;;12.70;99.90;;;;;;4969155;28;20273;-69
2022/07/22 10:21:10;;;;;;;4.50;3.57;;;12.60;99.90;;;;;;4955281;29;20182;-69
2022/07/22 10:23:57;;;;;;;7.83;3.53;;;12.60;99.90;;;;;;4955237;28;20197;-70
2022/07/22 10:26:51;;;;;;;6.80;4.20;;;12.60;99.90;;;;;;4958642;28;20198;-68
2022/07/22 10:29:30;;;;;;;11.33;4.53;;;12.70;99.90;;;;;;4968216;28;20663;-70
2022/07/22 10:32:16;;;;;;;10.97;5.70;;;12.60;99.90;;;;;;4978027;28;20170;-69
2022/07/22 10:35:06;;;;;;;10.73;4.60;;;12.60;99.90;;;;;;4959026;28;20178;-69
2022/07/22 10:37:43;;;;;;;13.13;4.53;;;12.70;99.90;;;;;;4957784;29;20231;-70
2022/07/22 10:40:22;;;;;;;10.37;4.70;;;12.70;99.90;;;;;;4958544;29;20226;-69
2022/07/22 10:42:58;;;;;;;15.37;7.50;;;12.70;99.90;;;;;;4963210;28;20663;-69
2022/07/22 10:45:28;;;;;;;13.60;6.63;;;12.70;99.90;;;;;;4978134;28;20182;-69
2022/07/22 10:47:59;;;;;;;10.27;4.70;;;12.70;99.90;;;;;;4977965;28;20270;-70
2022/07/22 10:50:36;;;;;;;6.43;3.70;;;12.70;99.90;;;;;;4977500;28;20284;-70
2022/07/22 10:53:07;;;;;;;11.00;4.10;;;12.70;99.90;;;;;;4970916;28;20668;-70
2022/07/22 10:55:36;;;;;;;9.80;5.67;;;12.70;99.90;;;;;;4958214;29;20180;-69
2022/07/22 10:58:32;;;;;;;10.80;5.23;;;12.70;99.90;;;;;;4958134;28;20650;-69
2022/07/22 11:01:12;;;;;;;10.23;4.50;;;12.70;99.90;;;;;;4957262;29;20202;-70
2022/07/22 11:03:43;;;;;;;7.83;4.10;;;12.70;99.90;;;;;;4966402;28;20198;-69
2022/07/22 11:06:16;;;;;;;7.57;3.83;;;12.70;99.90;;;;;;4977336;28;20254;-69
2022/07/22 11:08:45;;;;;;;8.47;4.00;;;12.80;99.90;;;;;;4977348;28;20173;-70
2022/07/22 11:11:13;;;;;;;8.43;3.90;;;12.80;99.90;;;;;;4969252;28;20270;-70
2022/07/22 11:13:44;;;;;;;11.67;4.30;;;12.80;99.90;;;;;;4958098;29;20202;-70
2022/07/22 11:16:28;;;;;;;7.07;4.30;;;12.80;99.90;;;;;;4958013;28;20731;-69
2022/07/22 11:19:02;;;;;;;8.43;3.97;;;12.80;99.90;;;;;;4959507;28;20183;-69
2022/07/22 11:21:34;;;;;;;9.83;5.27;;;12.80;99.90;;;;;;4969982;28;20217;-70
2022/07/22 11:24:04;;;;;;;11.03;5.00;;;12.80;99.90;;;;;;4977187;28;20181;-68
2022/07/22 11:26:41;;;;;;;15.80;5.00;;;12.80;99.90;;;;;;4977145;28;20179;-70
2022/07/22 11:29:11;;;;;;;8.47;4.27;;;12.80;99.90;;;;;;4976974;28;20185;-70
2022/07/22 11:31:39;;;;;;;9.67;3.73;;;12.90;99.90;;;;;;4962912;28;20201;-69
2022/07/22 11:34:13;;;;;;;11.47;4.27;;;12.80;99.90;;;;;;4957648;29;20190;-70
2022/07/22 11:36:43;;;;;;;8.30;4.93;;;12.80;99.90;;;;;;4955439;28;20575;-70
2022/07/22 11:39:12;;;;;;;14.20;5.60;;;12.80;99.90;;;;;;4974117;28;20635;-69
2022/07/22 11:41:40;;;;;;;11.70;5.20;;;12.80;99.90;;;;;;4962969;28;20198;-69
2022/07/22 11:44:09;;;;;;;15.77;6.13;;;12.70;99.90;;;;;;4957599;29;20186;-68
2022/07/22 11:46:43;;;;;;;8.80;5.43;;;12.60;99.90;;;;;;4956095;28;20195;-70
2022/07/22 11:49:15;;;;;;;11.47;5.57;;;12.60;99.90;;;;;;4957293;28;20186;-69
2022/07/22 11:51:43;;;;;;;9.30;6.20;;;12.60;99.90;;;;;;4970429;28;20190;-70
2022/07/22 11:54:11;;;;;;;7.90;4.90;;;12.60;99.90;;;;;;4976510;28;20190;-70
2022/07/22 11:56:40;;;;;;;10.27;5.87;;;12.60;99.90;;;;;;4976233;28;20590;-70
2022/07/22 11:59:12;;;;;;;13.30;6.47;;;12.60;99.90;;;;;;4957479;28;20660;-70
2022/07/22 12:01:43;;;;;;;11.47;7.47;;;12.60;99.90;;;;;;4969760;28;20190;-70
2022/07/22 12:04:13;;;;;;;12.90;6.70;;;12.60;99.90;;;;;;4976562;28;20171;-70
2022/07/22 12:06:43;;;;;;;13.00;7.63;;;12.60;99.90;;;;;;4963243;28;20190;-70
2022/07/22 12:09:12;;;;;;;15.67;7.43;;;12.60;99.90;;;;;;4955716;28;20546;-70
2022/07/22 12:11:51;;;;;;;10.47;5.87;;;12.60;99.90;;;;;;4968747;28;20222;-69
2022/07/22 12:14:25;;;;;;;11.27;5.70;;;12.60;99.90;;;;;;4958659;28;20191;-71
2022/07/22 12:17:11;;;;;;;13.63;6.10;;;12.70;99.90;;;;;;4957007;29;20551;-70
2022/07/22 12:19:41;;;;;;;9.20;5.97;;;12.60;99.90;;;;;;4971564;28;20190;-71
2022/07/22 12:22:10;;;;;;;10.40;5.50;;;12.60;99.90;;;;;;4974622;28;20188;-70
2022/07/22 12:24:39;;;;;;;10.93;4.87;;;12.60;99.90;;;;;;4976305;28;20176;-70
2022/07/22 12:27:18;;;;;;;13.27;4.53;;;12.60;99.90;;;;;;4976052;28;20190;-69
2022/07/22 12:29:47;;;;;;;12.93;5.07;;;12.50;99.90;;;;;;4974894;28;20221;-68
2022/07/22 12:32:24;;;;;;;6.13;4.30;;;12.50;99.90;;;;;;4956651;29;20266;-69
2022/07/22 12:35:06;;;;;;;10.27;5.43;;;12.40;99.90;;;;;;4970395;28;20222;-70
2022/07/22 12:37:44;;;;;;;17.17;8.90;;;12.40;99.90;;;;;;4975844;28;20225;-69
2022/07/22 12:40:29;;;;;;;14.23;6.90;;;12.30;99.90;;;;;;4974001;28;20648;-69
2022/07/22 12:43:04;;;;;;;7.47;4.77;;;12.30;99.90;;;;;;4975744;28;20546;-68
2022/07/22 12:45:34;;;;;;;8.20;4.60;;;12.10;99.90;;;;;;4975701;28;20177;-70
2022/07/22 12:48:05;;;;;;;9.17;4.80;;;12.00;99.90;;;;;;4961418;28;20184;-69
2022/07/22 12:50:53;;;;;;;8.87;4.87;;;11.90;99.90;;;;;;4966334;28;20218;-68
2022/07/22 12:53:21;;;;;;;9.80;4.87;;;11.90;99.90;;;;;;4975613;28;20205;-69